Time;durP1;ratioP1;P1;durP2;ratioP2;P2;SDS_P1;SDS_P2;PMS_P1;PMS_P2;Temp;Humidity;BMP_temperature;BMP_pressure;BME280_temperature;BME280_humidity;BME280_pressure;Samples;Min_cycle;Max_cycle;Signal;HPM_P1;HPM_P2
2022/05/01 00:00:32;;;;;;;6.82;4.32;;;;;;;14.20;41.89;101618.00;5053044;28;20093;-58
2022/05/01 00:02:58;;;;;;;7.68;3.97;;;;;;;14.20;41.80;101616.28;5052886;28;20056;-57
2022/05/01 00:05:27;;;;;;;6.82;4.20;;;;;;;14.19;41.55;101611.94;5053128;28;20053;-58
2022/05/01 00:07:54;;;;;;;9.77;3.88;;;;;;;14.16;41.40;101616.31;5052689;28;20496;-57
2022/05/01 00:10:24;;;;;;;6.38;3.80;;;;;;;14.14;41.65;101618.06;5052706;28;20165;-57
2022/05/01 00:12:51;;;;;;;10.00;3.75;;;;;;;14.10;41.65;101608.56;5052920;28;20064;-58
2022/05/01 00:15:19;;;;;;;6.93;3.42;;;;;;;14.09;41.34;101619.88;5052807;28;20056;-58
2022/05/01 00:17:46;;;;;;;6.97;3.50;;;;;;;14.07;41.42;101619.88;5052660;28;20524;-58
2022/05/01 00:20:15;;;;;;;7.35;3.55;;;;;;;14.07;41.65;101617.28;5052641;28;20056;-58
2022/05/01 00:22:43;;;;;;;10.93;3.60;;;;;;;14.06;41.53;101614.69;5042302;28;20478;-58
2022/05/01 00:25:10;;;;;;;6.20;3.65;;;;;;;14.03;41.44;101615.53;5057894;28;20060;-56
2022/05/01 00:27:39;;;;;;;8.68;3.45;;;;;;;14.01;41.79;101621.63;5058536;28;20053;-57
2022/05/01 00:30:07;;;;;;;8.35;3.92;;;;;;;13.99;41.85;101610.38;5059297;28;20085;-58
2022/05/01 00:36:25;;;;;;;7.15;3.88;;;;;;;13.98;41.80;101613.84;5058043;28;20060;-58
2022/05/01 00:38:06;;;;;;;6.70;3.15;;;;;;;13.89;42.02;101613.06;5061618;28;20055;-59
2022/05/01 00:40:32;;;;;;;6.68;3.60;;;;;;;13.87;42.41;101614.81;5075739;28;20063;-59
2022/05/01 00:43:03;;;;;;;6.07;3.22;;;;;;;13.89;42.43;101618.25;5099667;28;20056;-59
2022/05/01 00:45:30;;;;;;;7.93;3.45;;;;;;;13.88;42.78;101616.53;5099527;28;20055;-59
2022/05/01 00:47:57;;;;;;;4.68;2.90;;;;;;;13.84;42.70;101622.66;5099855;28;20048;-58
2022/05/01 00:50:23;;;;;;;6.75;3.60;;;;;;;13.80;42.59;101617.47;5099375;28;20058;-59
2022/05/01 00:52:50;;;;;;;6.28;2.92;;;;;;;13.76;42.54;101627.06;5099463;28;20059;-59
2022/05/01 00:55:16;;;;;;;7.53;3.42;;;;;;;13.73;42.90;101637.50;5099377;28;20063;-58
2022/05/01 00:57:44;;;;;;;6.25;3.13;;;;;;;13.70;42.69;101629.72;5079137;28;20049;-57
2022/05/01 01:00:13;;;;;;;7.20;3.72;;;;;;;13.67;42.64;101628.88;5058862;28;20469;-59
2022/05/01 01:02:39;;;;;;;5.03;3.22;;;;;;;13.68;42.58;101628.84;5058836;28;20498;-59
2022/05/01 01:05:07;;;;;;;9.30;3.72;;;;;;;13.66;42.65;101630.59;5058954;28;20052;-59
2022/05/01 01:07:34;;;;;;;8.95;4.15;;;;;;;13.67;42.72;101634.06;5076992;28;20480;-59
2022/05/01 01:10:01;;;;;;;8.02;3.40;;;;;;;13.65;42.66;101638.44;5079107;28;20044;-59
2022/05/01 01:15:13;;;;;;;6.50;3.88;;;;;;;13.62;42.72;101630.63;5078894;28;20404;-59
2022/05/01 01:17:41;;;;;;;9.55;4.07;;;;;;;13.61;42.67;101642.81;5079092;28;20049;-57
2022/05/01 01:20:12;;;;;;;8.32;3.67;;;;;;;13.60;42.80;101637.59;5078475;28;20476;-59
2022/05/01 01:22:40;;;;;;;4.80;2.83;;;;;;;13.55;42.80;101637.63;5069182;28;20080;-59
2022/05/01 01:25:10;;;;;;;5.70;3.08;;;;;;;13.52;42.79;101637.63;5058883;28;20060;-59
2022/05/01 01:27:37;;;;;;;6.25;3.30;;;;;;;13.48;43.13;101635.91;5059072;28;20064;-59
2022/05/01 01:32:50;;;;;;;6.55;2.90;;;;;;;13.42;43.27;101642.03;5058766;28;20059;-59
2022/05/01 01:35:18;;;;;;;4.55;2.50;;;;;;;13.43;43.19;101638.53;5057019;28;20068;-59
2022/05/01 01:37:47;;;;;;;7.60;3.13;;;;;;;13.44;43.19;101639.41;5055281;28;20045;-59
2022/05/01 01:40:17;;;;;;;6.18;3.65;;;;;;;13.44;43.24;101634.19;5049938;28;20069;-59
2022/05/01 01:42:46;;;;;;;6.28;3.65;;;;;;;13.43;43.41;101629.88;5075670;28;20373;-59
2022/05/01 01:45:14;;;;;;;8.35;3.63;;;;;;;13.42;43.40;101633.34;5075617;28;20055;-58
2022/05/01 01:47:40;;;;;;;7.30;3.05;;;;;;;13.39;43.66;101623.81;5075623;28;20064;-59
2022/05/01 01:50:09;;;;;;;5.45;2.95;;;;;;;13.35;43.86;101621.22;5075569;28;20049;-59
2022/05/01 01:52:36;;;;;;;8.27;3.22;;;;;;;13.32;44.18;101627.31;5060991;28;20144;-59
2022/05/01 01:55:04;;;;;;;4.32;2.80;;;;;;;13.32;44.02;101623.84;5055361;28;20056;-59
2022/05/01 01:57:31;;;;;;;5.90;3.03;;;;;;;13.32;43.90;101629.06;5055281;28;20045;-59
2022/05/01 01:59:57;;;;;;;8.35;3.15;;;;;;;13.33;44.01;101630.78;5055246;28;20060;-59
2022/05/01 02:02:23;;;;;;;5.50;3.17;;;;;;;13.35;43.78;101634.25;5055092;28;20049;-59
2022/05/01 02:04:50;;;;;;;5.30;3.08;;;;;;;13.33;43.81;101630.78;5055287;28;20075;-59
2022/05/01 02:07:16;;;;;;;4.82;2.88;;;;;;;13.33;44.70;101630.78;5054282;28;20550;-59
2022/05/01 02:09:43;;;;;;;4.95;2.63;;;;;;;13.33;45.03;101622.97;5055212;28;20053;-59
2022/05/01 02:12:11;;;;;;;4.25;2.85;;;;;;;13.32;45.29;101629.94;5035208;28;20049;-59
2022/05/01 02:14:38;;;;;;;10.68;3.75;;;;;;;13.31;44.92;101623.00;5035256;28;20057;-59
2022/05/01 02:17:04;;;;;;;5.25;3.03;;;;;;;13.30;44.75;101625.59;5034757;28;20093;-59
2022/05/01 02:19:31;;;;;;;6.75;3.70;;;;;;;13.26;44.34;101629.97;5034882;28;20049;-59
2022/05/01 02:21:58;;;;;;;5.43;3.10;;;;;;;13.24;44.51;101626.50;5052515;28;20074;-59
2022/05/01 02:24:25;;;;;;;6.93;3.80;;;;;;;13.22;44.39;101621.31;5075055;28;20056;-59
2022/05/01 02:26:52;;;;;;;11.80;3.72;;;;;;;13.21;44.50;101621.31;5074788;28;20060;-59
2022/05/01 02:29:21;;;;;;;5.78;3.70;;;;;;;13.18;44.78;101624.81;5074657;28;20048;-59
2022/05/01 02:31:53;;;;;;;7.43;3.42;;;;;;;13.19;44.76;101623.94;5074359;28;20067;-58
2022/05/01 02:34:22;;;;;;;5.90;3.10;;;;;;;13.17;44.71;101620.47;5074572;28;20106;-59
2022/05/01 02:36:49;;;;;;;7.82;3.67;;;;;;;13.16;44.66;101618.69;5074588;28;20068;-59
2022/05/01 02:39:16;;;;;;;6.32;3.47;;;;;;;13.13;44.39;101618.72;5072719;28;20052;-59
2022/05/01 02:41:43;;;;;;;7.38;4.28;;;;;;;13.13;44.37;101618.72;5082450;28;20292;-59
2022/05/01 02:44:10;;;;;;;6.00;3.85;;;;;;;13.10;44.65;101616.13;5094226;28;20136;-59
2022/05/01 02:46:38;;;;;;;8.38;3.90;;;;;;;13.10;44.77;101613.53;5094444;28;20075;-59
2022/05/01 02:49:05;;;;;;;8.50;4.05;;;;;;;13.08;44.78;101620.47;5094467;28;20051;-59
2022/05/01 02:51:32;;;;;;;6.47;3.92;;;;;;;13.09;44.76;101617.00;5054250;28;20060;-59
2022/05/01 02:53:59;;;;;;;8.43;4.05;;;;;;;13.10;44.61;101617.88;5054046;28;20087;-59
2022/05/01 02:56:25;;;;;;;4.78;3.40;;;;;;;13.10;44.56;101621.34;5054111;28;20053;-56
2022/05/01 02:58:54;;;;;;;4.75;2.92;;;;;;;13.10;44.52;101620.47;5054048;28;20052;-59
2022/05/01 03:01:21;;;;;;;5.30;2.90;;;;;;;13.09;44.56;101622.22;5053840;28;20386;-59
2022/05/01 03:03:51;;;;;;;7.20;3.25;;;;;;;13.08;44.33;101620.47;5053498;28;20060;-58
2022/05/01 03:06:17;;;;;;;7.57;3.50;;;;;;;13.07;44.55;101610.94;5061169;28;20048;-59
2022/05/01 03:08:45;;;;;;;5.30;3.17;;;;;;;13.04;44.59;101613.56;5073539;28;20044;-59
2022/05/01 03:11:13;;;;;;;9.48;3.33;;;;;;;13.04;44.88;101617.91;5073197;28;20680;-59
2022/05/01 03:13:41;;;;;;;6.38;3.25;;;;;;;13.01;45.69;101613.56;5073419;28;20059;-59
2022/05/01 03:16:07;;;;;;;4.68;3.35;;;;;;;12.98;46.09;101613.56;5073502;28;20095;-57
2022/05/01 03:24:03;;;;;;;5.27;3.10;;;;;;;12.89;45.81;101605.78;5073610;28;20476;-59
2022/05/01 03:26:29;;;;;;;5.43;2.83;;;;;;;12.87;45.82;101615.34;5073367;28;20059;-58
2022/05/01 03:28:56;;;;;;;6.05;3.40;;;;;;;12.86;45.90;101624.88;5073594;28;20049;-57
2022/05/01 03:31:22;;;;;;;5.38;2.60;;;;;;;12.84;46.35;101620.56;5073727;28;20063;-59
2022/05/01 03:33:49;;;;;;;9.32;3.80;;;;;;;12.84;46.73;101625.75;5073357;28;20060;-56
2022/05/01 03:36:16;;;;;;;5.43;3.15;;;;;;;12.82;46.57;101625.78;5072924;28;20453;-58
2022/05/01 03:38:44;;;;;;;5.93;3.05;;;;;;;12.83;45.89;101622.28;5073125;28;20087;-58
2022/05/01 03:41:14;;;;;;;6.18;3.10;;;;;;;12.83;45.81;101618.81;5075600;28;20052;-57
2022/05/01 03:43:40;;;;;;;6.68;3.00;;;;;;;12.84;45.47;101623.16;5093633;28;20059;-59
2022/05/01 03:46:07;;;;;;;5.47;2.83;;;;;;;12.85;45.41;101619.69;5093692;28;20054;-59
2022/05/01 03:48:34;;;;;;;5.43;3.05;;;;;;;12.86;45.34;101618.81;5093853;28;20059;-59
2022/05/01 03:51:01;;;;;;;5.13;3.08;;;;;;;12.87;45.31;101612.75;5093471;28;20058;-57
2022/05/01 03:53:29;;;;;;;5.22;3.15;;;;;;;12.86;45.80;101618.81;5093207;28;20346;-58
2022/05/01 03:55:57;;;;;;;5.25;3.35;;;;;;;12.86;45.69;101616.22;5093527;28;20058;-58
2022/05/01 03:58:24;;;;;;;5.00;3.03;;;;;;;12.86;45.79;101618.81;5093172;28;20039;-58
2022/05/01 04:00:52;;;;;;;5.75;3.10;;;;;;;12.86;45.99;101609.28;5093537;28;20056;-59
2022/05/01 04:03:19;;;;;;;5.95;3.10;;;;;;;12.86;46.25;101614.47;5093736;28;20063;-59
2022/05/01 04:05:48;;;;;;;9.20;3.20;;;;;;;12.85;47.14;101617.09;5089107;28;20565;-59
2022/05/01 04:08:16;;;;;;;8.13;3.13;;;;;;;12.83;47.78;101617.09;5073245;28;20048;-59
2022/05/01 04:10:45;;;;;;;6.40;3.00;;;;;;;12.83;47.91;101621.44;5073318;28;20060;-59
2022/05/01 04:13:14;;;;;;;5.97;3.25;;;;;;;12.83;48.15;101624.91;5073595;28;20062;-59
2022/05/01 04:15:42;;;;;;;8.02;3.38;;;;;;;12.82;48.19;101625.78;5073191;28;20060;-57
2022/05/01 04:18:09;;;;;;;4.88;3.25;;;;;;;12.83;48.35;101626.63;5073105;28;20076;-57
2022/05/01 04:20:37;;;;;;;6.65;3.08;;;;;;;12.83;47.83;101629.22;5058830;28;20592;-59
2022/05/01 04:23:04;;;;;;;6.20;3.25;;;;;;;12.84;48.26;101631.84;5042766;28;20146;-58
2022/05/01 04:25:31;;;;;;;4.60;2.78;;;;;;;12.86;48.51;101629.22;5052193;28;20741;-59
2022/05/01 04:28:01;;;;;;;7.53;3.78;;;;;;;12.84;48.33;101636.16;5052601;28;20064;-59
2022/05/01 04:30:31;;;;;;;12.23;3.78;;;;;;;12.82;48.77;101646.59;5052425;28;20067;-57
2022/05/01 04:32:59;;;;;;;8.02;4.13;;;;;;;12.83;49.08;101640.50;5052881;28;20056;-59
2022/05/01 04:35:28;;;;;;;8.13;4.13;;;;;;;12.85;49.68;101637.91;5052872;28;20049;-59
2022/05/01 04:37:56;;;;;;;5.88;3.58;;;;;;;12.83;49.67;101630.09;5052853;28;20080;-58
2022/05/01 04:40:22;;;;;;;6.45;3.20;;;;;;;12.87;48.70;101620.53;5047733;28;20048;-59
2022/05/01 04:42:48;;;;;;;5.18;2.88;;;;;;;12.84;49.03;101630.97;5073043;28;20068;-59
2022/05/01 04:45:15;;;;;;;5.82;3.45;;;;;;;12.83;49.14;101637.03;5072867;28;20058;-59
2022/05/01 04:47:43;;;;;;;6.20;3.40;;;;;;;12.80;49.00;101644.84;5072945;28;20133;-58
2022/05/01 04:50:11;;;;;;;7.65;3.85;;;;;;;12.75;49.09;101644.00;5072845;28;20053;-59
2022/05/01 04:52:38;;;;;;;9.02;3.90;;;;;;;12.74;48.93;101637.06;5072589;28;20125;-58
2022/05/01 04:55:06;;;;;;;8.15;3.70;;;;;;;12.77;48.77;101634.47;5072355;28;20369;-58
2022/05/01 04:57:33;;;;;;;6.05;3.47;;;;;;;12.80;48.79;101631.84;5072612;28;20056;-58
2022/05/01 05:00:01;;;;;;;8.65;3.35;;;;;;;12.83;48.68;101634.44;5072923;28;20048;-56
2022/05/01 05:02:39;;;;;;;5.97;3.20;;;;;;;12.89;48.66;101634.41;5072715;28;20122;-59
2022/05/01 05:05:09;;;;;;;5.78;2.97;;;;;;;12.90;48.38;101630.94;5072985;28;20063;-58
2022/05/01 05:07:36;;;;;;;6.95;3.15;;;;;;;12.92;48.52;101639.59;5053756;28;20111;-58
2022/05/01 05:10:02;;;;;;;4.93;3.00;;;;;;;12.94;48.50;101643.06;5052717;28;20067;-59
2022/05/01 05:12:29;;;;;;;7.22;3.40;;;;;;;12.95;48.66;101640.47;5055608;28;20061;-58
2022/05/01 05:14:59;;;;;;;7.15;3.55;;;;;;;12.99;48.53;101635.25;5056246;28;20053;-57
2022/05/01 05:17:26;;;;;;;4.95;3.08;;;;;;;12.98;48.47;101633.50;5056828;28;20057;-58
2022/05/01 05:19:52;;;;;;;5.22;3.20;;;;;;;12.98;48.81;101644.78;5056023;28;20056;-57
2022/05/01 05:22:20;;;;;;;7.00;3.80;;;;;;;13.00;48.58;101647.38;5045684;28;20056;-59
2022/05/01 05:24:47;;;;;;;6.95;3.42;;;;;;;13.03;49.17;101655.22;5056114;28;20056;-59
2022/05/01 05:27:13;;;;;;;6.63;3.53;;;;;;;13.06;49.33;101656.06;5056341;28;20053;-58
2022/05/01 05:29:40;;;;;;;7.82;3.95;;;;;;;13.09;49.49;101656.06;5056299;28;20049;-59
2022/05/01 05:32:08;;;;;;;6.90;3.83;;;;;;;13.09;49.37;101656.06;5056199;28;20055;-59
2022/05/01 05:34:34;;;;;;;7.15;3.50;;;;;;;13.09;49.26;101653.44;5055447;28;20041;-59
2022/05/01 05:37:01;;;;;;;7.47;3.92;;;;;;;13.13;49.11;101649.97;5056137;28;20049;-58
2022/05/01 05:39:28;;;;;;;8.57;4.15;;;;;;;13.13;49.22;101644.75;5055314;28;20425;-59
2022/05/01 05:41:55;;;;;;;10.38;4.25;;;;;;;13.08;48.98;101654.31;5087188;28;20416;-57
2022/05/01 05:44:23;;;;;;;10.68;4.10;;;;;;;13.08;49.12;101651.72;5096179;28;20048;-59
2022/05/01 05:46:50;;;;;;;5.05;3.53;;;;;;;13.10;48.96;101654.31;5095986;28;20052;-59
2022/05/01 05:49:18;;;;;;;7.72;4.65;;;;;;;13.11;48.83;101656.91;5095917;28;20044;-57
2022/05/01 05:51:46;;;;;;;7.18;3.83;;;;;;;13.15;48.66;101663.84;5096132;28;20056;-59
2022/05/01 05:54:14;;;;;;;6.80;3.30;;;;;;;13.18;48.62;101658.66;5095588;28;20484;-59
2022/05/01 05:56:43;;;;;;;6.60;3.40;;;;;;;13.26;48.49;101667.28;5095311;28;20477;-59
2022/05/01 05:59:09;;;;;;;8.15;4.03;;;;;;;13.32;48.45;101660.31;5095443;28;20480;-59
2022/05/01 06:01:37;;;;;;;7.65;3.28;;;;;;;13.37;48.22;101659.41;5095884;28;20138;-58
2022/05/01 06:04:05;;;;;;;7.03;3.60;;;;;;;13.42;47.92;101651.56;5095866;28;20056;-58
2022/05/01 06:06:33;;;;;;;7.38;3.50;;;;;;;13.45;47.86;101668.03;5085696;28;20055;-59
2022/05/01 06:09:01;;;;;;;5.38;3.70;;;;;;;13.48;47.54;101667.16;5075095;28;20049;-59
2022/05/01 06:11:29;;;;;;;8.20;3.65;;;;;;;13.48;47.48;101651.53;5075382;28;20063;-59
2022/05/01 06:13:58;;;;;;;6.05;3.58;;;;;;;13.48;47.21;101657.59;5075458;28;20056;-57
2022/05/01 06:16:25;;;;;;;4.93;3.05;;;;;;;13.52;47.19;101661.06;5074695;28;20044;-59
2022/05/01 06:18:53;;;;;;;8.57;4.03;;;;;;;13.57;47.00;101664.53;5074886;28;20520;-59
2022/05/01 06:21:20;;;;;;;7.00;3.92;;;;;;;13.56;46.60;101655.84;5063989;28;20056;-58
2022/05/01 06:23:48;;;;;;;6.70;3.60;;;;;;;13.59;46.64;101654.97;5074652;28;20070;-59
2022/05/01 06:26:17;;;;;;;9.05;4.07;;;;;;;13.65;46.57;101648.84;5075002;28;20052;-59
2022/05/01 06:28:43;;;;;;;12.57;3.50;;;;;;;13.70;46.48;101654.91;5075164;28;20071;-56
2022/05/01 06:31:15;;;;;;;11.85;3.30;;;;;;;13.74;46.17;101660.06;5074968;28;20048;-57
2022/05/01 06:33:44;;;;;;;10.80;2.95;;;;;;;13.74;45.76;101654.88;5075208;28;20056;-59
2022/05/01 06:36:11;;;;;;;8.75;2.80;;;;;;;13.75;45.56;101659.19;5057707;28;20049;-59
2022/05/01 06:38:37;;;;;;;5.18;2.95;;;;;;;13.76;45.59;101658.31;5054955;28;20044;-58
2022/05/01 06:41:04;;;;;;;6.18;2.75;;;;;;;13.80;45.38;101654.81;5072606;28;20059;-59
2022/05/01 06:43:32;;;;;;;6.97;3.35;;;;;;;13.82;45.16;101657.41;5094829;28;20083;-59
2022/05/01 06:45:58;;;;;;;7.70;2.97;;;;;;;13.86;45.10;101660.00;5086889;28;20063;-59
2022/05/01 06:48:28;;;;;;;5.00;3.05;;;;;;;13.94;45.03;101656.47;5094837;28;20052;-58
2022/05/01 06:50:54;;;;;;;6.07;2.55;;;;;;;14.03;45.04;101649.44;5094861;28;20051;-59
2022/05/01 06:53:22;;;;;;;5.45;2.60;;;;;;;14.14;44.55;101651.97;5094644;28;20354;-59
2022/05/01 06:56:07;;;;;;;6.68;2.70;;;;;;;14.24;44.15;101653.63;5094621;28;20067;-58
2022/05/01 06:58:35;;;;;;;5.32;2.28;;;;;;;14.31;44.04;101660.50;5078293;28;20052;-59
2022/05/01 07:01:01;;;;;;;5.97;2.35;;;;;;;14.47;44.03;101661.25;5063105;28;20045;-59
2022/05/01 07:03:29;;;;;;;5.82;2.63;;;;;;;14.63;43.67;101654.16;5062938;28;20044;-57
2022/05/01 07:05:56;;;;;;;5.82;2.25;;;;;;;14.75;43.29;101654.88;5063149;28;20076;-55
2022/05/01 07:08:23;;;;;;;4.15;2.33;;;;;;;14.86;43.04;101657.38;5063067;28;20073;-58
2022/05/01 07:10:49;;;;;;;7.88;2.58;;;;;;;14.98;42.88;101667.66;5062663;28;20103;-58
2022/05/01 07:13:16;;;;;;;5.95;2.67;;;;;;;15.12;43.03;101670.16;5061113;28;20111;-58
2022/05/01 07:15:42;;;;;;;4.72;2.10;;;;;;;15.26;42.99;101668.22;5062898;28;20045;-59
2022/05/01 07:18:08;;;;;;;4.78;2.58;;;;;;;15.34;42.43;101670.72;5062372;28;20044;-59
2022/05/01 07:20:36;;;;;;;3.67;1.80;;;;;;;15.35;42.04;101665.47;5061658;28;20458;-58
2022/05/01 07:23:03;;;;;;;4.57;1.98;;;;;;;15.38;42.10;101664.56;5061599;28;20566;-59
2022/05/01 07:25:30;;;;;;;3.63;1.70;;;;;;;15.38;41.66;101665.44;5059446;28;20135;-58
2022/05/01 07:27:56;;;;;;;4.13;1.85;;;;;;;15.36;41.36;101659.38;5060769;28;20059;-59
2022/05/01 07:30:23;;;;;;;4.65;1.90;;;;;;;15.27;41.30;101656.03;5061339;28;20092;-59
2022/05/01 07:32:49;;;;;;;4.20;2.60;;;;;;;15.23;41.81;101651.72;5061812;28;20053;-59
2022/05/01 07:35:17;;;;;;;5.65;2.42;;;;;;;15.18;42.29;101659.63;5059915;28;20063;-59
2022/05/01 07:37:53;;;;;;;3.03;1.90;;;;;;;15.09;42.71;101660.59;5061924;28;20049;-59
2022/05/01 07:40:24;;;;;;;4.15;2.20;;;;;;;14.98;42.97;101661.59;5061546;28;20425;-59
2022/05/01 07:42:52;;;;;;;4.20;2.10;;;;;;;14.88;43.31;101665.19;5060865;28;20056;-59
2022/05/01 07:45:23;;;;;;;7.28;2.35;;;;;;;14.78;43.58;101660.06;5062515;28;20055;-57
2022/05/01 07:47:50;;;;;;;5.45;1.98;;;;;;;14.70;43.82;101668.88;5055825;28;20049;-58
2022/05/01 07:50:21;;;;;;;4.70;2.08;;;;;;;14.64;43.84;101672.41;5056184;28;20048;-59
2022/05/01 07:53:01;;;;;;;3.50;2.08;;;;;;;14.61;43.81;101671.56;5062661;28;20056;-59
2022/05/01 07:55:29;;;;;;;3.75;1.90;;;;;;;14.55;44.22;101674.22;5060815;28;20053;-58
2022/05/01 07:57:57;;;;;;;4.72;2.30;;;;;;;14.53;44.25;101656.84;5058987;28;20057;-58
2022/05/01 08:00:28;;;;;;;5.05;2.88;;;;;;;14.44;44.65;101664.75;5061902;28;20045;-59
2022/05/01 08:05:42;;;;;;;6.57;2.30;;;;;;;14.38;44.75;101664.78;5069216;28;20516;-59
2022/05/01 08:08:24;;;;;;;4.22;1.98;;;;;;;14.40;44.31;101663.03;5051888;28;20381;-59
2022/05/01 08:10:50;;;;;;;7.38;1.90;;;;;;;14.42;44.06;101661.31;5053094;28;20061;-59
2022/05/01 08:13:17;;;;;;;3.58;1.75;;;;;;;14.47;43.95;101659.50;5052504;28;20136;-59
2022/05/01 08:15:43;;;;;;;3.65;1.88;;;;;;;14.48;43.70;101661.25;5052048;28;20067;-58
2022/05/01 08:21:07;;;;;;;3.28;1.42;;;;;;;14.58;43.23;101661.19;5052335;28;20047;-59
2022/05/01 08:23:36;;;;;;;4.05;1.23;;;;;;;14.66;42.88;101654.13;5052673;28;20063;-59
2022/05/01 08:26:03;;;;;;;2.67;1.85;;;;;;;14.77;42.65;101660.09;5053083;28;20049;-59
2022/05/01 08:28:30;;;;;;;1.90;1.17;;;;;;;14.86;42.35;101657.38;5068707;28;20057;-58
2022/05/01 08:30:56;;;;;;;4.53;1.60;;;;;;;14.94;42.24;101655.53;5073062;28;20048;-59
2022/05/01 08:33:23;;;;;;;7.57;1.70;;;;;;;15.00;41.91;101655.47;5072926;28;20056;-59
2022/05/01 08:35:50;;;;;;;3.75;1.52;;;;;;;15.03;41.51;101646.72;5072729;28;20052;-58
2022/05/01 08:38:17;;;;;;;3.30;1.65;;;;;;;15.08;41.51;101647.53;5072486;28;20052;-59
2022/05/01 08:40:47;;;;;;;3.63;1.60;;;;;;;15.13;41.13;101651.84;5064846;28;20044;-58
2022/05/01 08:43:15;;;;;;;14.82;2.40;;;;;;;15.18;40.72;101658.75;5072684;28;20063;-55
2022/05/01 08:45:49;;;;;;;18.35;2.30;;;;;;;15.23;40.89;101652.59;5074831;28;20067;-59
2022/05/01 08:48:25;;;;;;;10.60;2.08;;;;;;;15.33;40.41;101648.97;5076980;28;20068;-58
2022/05/01 08:50:53;;;;;;;3.53;1.30;;;;;;;15.47;40.10;101648.78;5077105;28;20045;-58
2022/05/01 08:53:23;;;;;;;2.70;1.20;;;;;;;15.61;39.49;101646.03;5076828;28;20052;-58
2022/05/01 08:55:51;;;;;;;2.65;1.33;;;;;;;15.74;39.09;101640.59;5076629;28;20056;-59
2022/05/01 08:58:17;;;;;;;2.25;1.13;;;;;;;15.88;38.21;101642.97;5076627;28;20072;-58
2022/05/01 09:00:45;;;;;;;6.07;1.50;;;;;;;15.97;38.02;101640.22;5076532;28;20055;-58
2022/05/01 09:03:12;;;;;;;5.35;1.60;;;;;;;16.07;37.33;101636.53;5076576;28;20056;-58
2022/05/01 09:05:40;;;;;;;7.80;1.95;;;;;;;16.11;37.40;101639.97;5062163;28;20627;-59
2022/05/01 09:08:07;;;;;;;4.45;1.50;;;;;;;16.22;36.80;101642.44;5056288;28;20060;-59
2022/05/01 09:10:34;;;;;;;3.65;1.52;;;;;;;16.31;36.47;101643.13;5056018;28;20470;-57
2022/05/01 09:13:01;;;;;;;3.38;1.35;;;;;;;16.42;36.54;101643.81;5056252;28;20398;-58
2022/05/01 09:15:30;;;;;;;7.38;1.80;;;;;;;16.54;36.33;101639.22;5055724;28;20537;-58
2022/05/01 09:18:01;;;;;;;4.35;1.52;;;;;;;16.68;35.93;101645.13;5056359;28;20080;-59
2022/05/01 09:20:28;;;;;;;3.67;1.50;;;;;;;16.78;35.48;101636.19;5055738;28;20092;-59
2022/05/01 09:22:57;;;;;;;2.95;1.50;;;;;;;16.89;34.93;101638.59;5044277;28;20053;-59
2022/05/01 09:25:26;;;;;;;2.80;1.30;;;;;;;16.99;34.36;101643.63;5035875;28;20060;-59
2022/05/01 09:27:56;;;;;;;4.93;1.73;;;;;;;17.07;34.33;101634.72;5035873;28;20152;-59
2022/05/01 09:30:32;;;;;;;2.38;1.20;;;;;;;17.13;34.18;101634.59;5035843;28;20088;-58
2022/05/01 09:32:59;;;;;;;2.90;1.48;;;;;;;17.17;33.86;101636.25;5035091;28;20442;-58
2022/05/01 09:35:31;;;;;;;2.08;1.20;;;;;;;17.25;33.91;101634.38;5054097;28;20095;-58
2022/05/01 09:38:26;;;;;;;5.25;1.60;;;;;;;17.34;33.01;101635.03;5074397;28;20076;-58
2022/05/01 09:40:55;;;;;;;4.22;1.83;;;;;;;17.42;33.48;101633.97;5002088;28;20052;-57
2022/05/01 09:43:36;;;;;;;3.95;1.55;;;;;;;17.50;32.77;101630.28;5070274;28;20053;-58
2022/05/01 09:46:18;;;;;;;4.07;1.90;;;;;;;17.53;32.81;101638.09;5075194;28;20683;-58
2022/05/01 09:48:58;;;;;;;3.70;1.70;;;;;;;17.53;32.66;101631.97;5076012;28;20053;-58
2022/05/01 09:51:25;;;;;;;3.80;1.60;;;;;;;17.52;33.01;101627.63;5073270;28;20132;-56
2022/05/01 09:53:52;;;;;;;6.30;1.73;;;;;;;17.51;33.01;101626.78;5075809;28;20058;-59
2022/05/01 09:56:18;;;;;;;5.57;2.35;;;;;;;17.53;32.92;101629.34;5075343;28;20055;-59
2022/05/01 09:58:45;;;;;;;3.95;1.33;;;;;;;17.55;33.21;101623.19;5075470;28;20063;-59
2022/05/01 10:01:14;;;;;;;4.28;1.42;;;;;;;17.57;33.09;101621.38;5064961;28;20044;-59
2022/05/01 10:03:43;;;;;;;5.20;1.70;;;;;;;17.62;33.00;101624.75;5069138;28;20053;-59
2022/05/01 10:06:11;;;;;;;4.50;2.13;;;;;;;17.67;32.90;101622.91;5058633;28;20076;-58
2022/05/01 10:08:39;;;;;;;4.45;1.65;;;;;;;17.69;32.60;101622.03;5063186;28;20061;-58
2022/05/01 10:11:07;;;;;;;4.70;1.63;;;;;;;17.71;32.80;101618.50;5056992;28;20059;-59
2022/05/01 10:13:35;;;;;;;4.68;1.77;;;;;;;17.74;32.58;101610.56;5055014;28;20076;-58
2022/05/01 10:16:03;;;;;;;4.78;2.00;;;;;;;17.80;33.15;101612.16;5054790;28;20056;-58
2022/05/01 10:18:30;;;;;;;11.25;2.33;;;;;;;17.85;33.06;101605.03;5055256;28;20049;-59
2022/05/01 10:20:58;;;;;;;5.15;1.90;;;;;;;17.88;32.78;101604.97;5046724;28;20045;-58
2022/05/01 10:23:26;;;;;;;7.00;1.75;;;;;;;17.85;32.34;101599.81;5054447;28;20053;-59
2022/05/01 10:25:56;;;;;;;6.15;2.17;;;;;;;17.80;32.59;101597.28;5055335;28;20064;-59
2022/05/01 10:28:55;;;;;;;5.05;1.70;;;;;;;17.88;32.62;101605.84;5054910;28;20387;-59
2022/05/01 10:34:43;;;;;;;4.13;1.58;;;;;;;18.15;32.55;101593.75;5078095;28;20062;-58
2022/05/01 10:37:36;;;;;;;4.38;1.73;;;;;;;18.27;32.30;101588.22;5085673;28;20063;-58
2022/05/01 10:40:03;;;;;;;3.10;1.58;;;;;;;18.40;32.57;101593.13;5077152;28;20053;-59
2022/05/01 10:42:34;;;;;;;4.05;1.40;;;;;;;18.52;32.19;101590.16;5095040;28;20048;-59
2022/05/01 10:45:00;;;;;;;4.38;1.77;;;;;;;18.63;32.07;101601.25;5095129;28;20079;-58
2022/05/01 10:47:37;;;;;;;3.22;1.70;;;;;;;18.72;31.83;101595.75;5094618;28;20468;-58
2022/05/01 10:50:08;;;;;;;3.13;1.67;;;;;;;18.82;31.51;101583.25;5094884;28;20479;-58
2022/05/01 10:53:01;;;;;;;4.55;1.90;;;;;;;18.87;30.66;101584.81;5094456;28;20437;-59
2022/05/01 10:55:42;;;;;;;5.82;1.88;;;;;;;18.87;30.69;101584.81;5094978;28;20043;-59
2022/05/01 10:58:22;;;;;;;5.38;1.60;;;;;;;18.93;31.19;101578.53;5080164;28;20449;-57
2022/05/01 11:00:51;;;;;;;6.75;2.33;;;;;;;18.98;31.68;101576.63;5074299;28;20053;-58
2022/05/01 11:03:25;;;;;;;6.68;2.25;;;;;;;19.05;31.86;101577.28;5074292;28;20059;-59
2022/05/01 11:05:55;;;;;;;4.97;1.90;;;;;;;19.08;32.43;101577.19;5074050;28;20427;-58
2022/05/01 11:08:27;;;;;;;5.80;2.42;;;;;;;19.13;32.45;101575.28;5074203;28;20059;-58
2022/05/01 11:10:55;;;;;;;16.58;2.90;;;;;;;19.15;32.45;101574.34;5074340;28;20088;-58
2022/05/01 11:13:25;;;;;;;4.45;2.35;;;;;;;19.16;32.59;101581.31;5073894;28;20679;-56
2022/05/01 11:15:53;;;;;;;3.80;1.73;;;;;;;19.19;32.51;101580.34;5074268;28;20135;-57
2022/05/01 11:18:28;;;;;;;3.45;1.85;;;;;;;19.20;32.68;101572.44;5073425;28;20052;-58
2022/05/01 11:20:55;;;;;;;6.63;1.70;;;;;;;19.25;32.81;101574.94;5073572;28;20377;-58
2022/05/01 11:23:33;;;;;;;4.57;2.22;;;;;;;19.31;32.53;101563.38;5073438;28;20525;-58
2022/05/01 11:26:14;;;;;;;5.60;1.88;;;;;;;19.31;32.53;101566.88;5074016;28;20125;-57
2022/05/01 11:28:54;;;;;;;2.92;1.67;;;;;;;19.36;32.25;101558.84;5073887;28;20057;-57
2022/05/01 11:31:44;;;;;;;5.75;1.63;;;;;;;19.43;32.34;101563.84;5073840;28;20044;-58
2022/05/01 11:34:49;;;;;;;4.22;2.33;;;;;;;19.48;32.58;101551.41;5073469;28;20469;-58
2022/05/01 11:37:16;;;;;;;4.97;2.20;;;;;;;19.50;32.71;101573.25;5073607;28;20076;-58
2022/05/01 11:40:27;;;;;;;4.00;1.60;;;;;;;19.47;32.78;101572.50;5067954;28;20045;-58
2022/05/01 11:43:15;;;;;;;4.63;1.95;;;;;;;19.42;32.32;101572.63;5053131;28;20063;-57
2022/05/01 11:45:42;;;;;;;3.63;2.13;;;;;;;19.40;32.24;101579.72;5053735;28;20138;-58
2022/05/01 11:48:12;;;;;;;6.00;1.75;;;;;;;19.32;31.88;101570.34;5053401;28;20454;-55
2022/05/01 11:50:39;;;;;;;8.00;2.40;;;;;;;19.20;31.96;101561.91;5053589;28;20084;-55
2022/05/01 11:53:16;;;;;;;5.22;2.15;;;;;;;19.06;31.83;101568.50;5056047;28;20048;-57
2022/05/01 12:04:02;;;;;;;3.95;2.20;;;;;;;18.21;32.64;101577.88;5073362;28;20097;-58